sensor_id;sensor_type;location;lat;lon;timestamp;P1;durP1;ratioP1;P2;durP2;ratioP2
6127;SDS011;7073;42.672;23.256;2023-12-22T00:00:31;48.03;;;21.75;;
6127;SDS011;7073;42.672;23.256;2023-12-22T00:19:05;41.80;;;19.55;;
6127;SDS011;7073;42.672;23.256;2023-12-22T00:21:35;37.85;;;18.98;;
6127;SDS011;7073;42.672;23.256;2023-12-22T00:24:04;40.03;;;20.08;;
6127;SDS011;7073;42.672;23.256;2023-12-22T00:26:32;35.72;;;16.70;;
6127;SDS011;7073;42.672;23.256;2023-12-22T00:28:59;41.95;;;20.45;;
6127;SDS011;7073;42.672;23.256;2023-12-22T00:31:29;40.33;;;19.13;;
6127;SDS011;7073;42.672;23.256;2023-12-22T00:33:58;39.83;;;20.42;;
6127;SDS011;7073;42.672;23.256;2023-12-22T00:36:27;36.17;;;18.50;;
6127;SDS011;7073;42.672;23.256;2023-12-22T00:38:56;40.10;;;18.35;;
6127;SDS011;7073;42.672;23.256;2023-12-22T00:41:24;39.00;;;18.30;;
6127;SDS011;7073;42.672;23.256;2023-12-22T00:43:54;35.45;;;16.17;;
6127;SDS011;7073;42.672;23.256;2023-12-22T00:46:32;30.55;;;15.77;;
6127;SDS011;7073;42.672;23.256;2023-12-22T00:49:00;31.20;;;16.73;;
6127;SDS011;7073;42.672;23.256;2023-12-22T00:51:41;31.75;;;16.52;;
6127;SDS011;7073;42.672;23.256;2023-12-22T00:54:10;35.97;;;18.10;;
6127;SDS011;7073;42.672;23.256;2023-12-22T00:57:06;34.38;;;16.15;;
6127;SDS011;7073;42.672;23.256;2023-12-22T00:59:33;27.75;;;15.30;;
6127;SDS011;7073;42.672;23.256;2023-12-22T01:02:00;30.00;;;15.75;;
6127;SDS011;7073;42.672;23.256;2023-12-22T01:04:29;23.23;;;12.88;;
6127;SDS011;7073;42.672;23.256;2023-12-22T01:30:17;27.00;;;13.60;;
6127;SDS011;7073;42.672;23.256;2023-12-22T01:33:09;30.98;;;13.70;;
6127;SDS011;7073;42.672;23.256;2023-12-22T01:36:14;25.73;;;14.20;;
6127;SDS011;7073;42.672;23.256;2023-12-22T01:38:58;31.02;;;13.95;;
6127;SDS011;7073;42.672;23.256;2023-12-22T01:41:33;32.28;;;14.48;;
6127;SDS011;7073;42.672;23.256;2023-12-22T02:14:58;23.95;;;11.40;;
6127;SDS011;7073;42.672;23.256;2023-12-22T02:20:10;26.20;;;13.07;;
6127;SDS011;7073;42.672;23.256;2023-12-22T02:22:39;23.35;;;12.40;;
6127;SDS011;7073;42.672;23.256;2023-12-22T02:25:06;25.55;;;11.70;;
6127;SDS011;7073;42.672;23.256;2023-12-22T02:27:34;24.80;;;12.55;;
6127;SDS011;7073;42.672;23.256;2023-12-22T02:30:07;26.13;;;12.20;;
6127;SDS011;7073;42.672;23.256;2023-12-22T02:32:40;25.48;;;12.07;;
6127;SDS011;7073;42.672;23.256;2023-12-22T02:35:09;26.75;;;13.30;;
6127;SDS011;7073;42.672;23.256;2023-12-22T02:37:42;27.80;;;12.55;;
6127;SDS011;7073;42.672;23.256;2023-12-22T02:40:12;27.05;;;12.00;;
6127;SDS011;7073;42.672;23.256;2023-12-22T02:42:42;22.40;;;12.15;;
6127;SDS011;7073;42.672;23.256;2023-12-22T02:45:12;22.10;;;11.15;;
6127;SDS011;7073;42.672;23.256;2023-12-22T02:47:44;23.13;;;13.57;;
6127;SDS011;7073;42.672;23.256;2023-12-22T02:50:12;26.50;;;11.27;;
6127;SDS011;7073;42.672;23.256;2023-12-22T02:52:42;23.15;;;13.55;;
6127;SDS011;7073;42.672;23.256;2023-12-22T02:55:10;23.45;;;11.13;;
6127;SDS011;7073;42.672;23.256;2023-12-22T02:57:42;20.42;;;10.93;;
6127;SDS011;7073;42.672;23.256;2023-12-22T03:00:12;23.73;;;9.75;;
6127;SDS011;7073;42.672;23.256;2023-12-22T03:02:45;21.40;;;10.07;;
6127;SDS011;7073;42.672;23.256;2023-12-22T03:05:13;19.65;;;10.20;;
6127;SDS011;7073;42.672;23.256;2023-12-22T03:07:47;23.02;;;11.00;;
6127;SDS011;7073;42.672;23.256;2023-12-22T03:10:19;21.23;;;11.32;;
6127;SDS011;7073;42.672;23.256;2023-12-22T03:12:49;21.45;;;11.32;;
6127;SDS011;7073;42.672;23.256;2023-12-22T03:15:18;22.20;;;10.60;;
6127;SDS011;7073;42.672;23.256;2023-12-22T03:17:55;28.13;;;12.70;;
6127;SDS011;7073;42.672;23.256;2023-12-22T03:20:50;21.15;;;11.32;;
6127;SDS011;7073;42.672;23.256;2023-12-22T03:43:23;28.63;;;12.13;;
6127;SDS011;7073;42.672;23.256;2023-12-22T03:46:17;27.65;;;14.27;;
6127;SDS011;7073;42.672;23.256;2023-12-22T03:48:53;27.33;;;13.75;;
6127;SDS011;7073;42.672;23.256;2023-12-22T03:51:28;32.13;;;15.18;;
6127;SDS011;7073;42.672;23.256;2023-12-22T03:54:21;30.25;;;15.98;;
6127;SDS011;7073;42.672;23.256;2023-12-22T03:57:17;23.70;;;12.93;;
6127;SDS011;7073;42.672;23.256;2023-12-22T04:00:14;27.77;;;14.80;;
6127;SDS011;7073;42.672;23.256;2023-12-22T04:03:02;25.27;;;13.70;;
6127;SDS011;7073;42.672;23.256;2023-12-22T04:06:08;29.92;;;15.68;;
6127;SDS011;7073;42.672;23.256;2023-12-22T04:09:10;24.27;;;13.00;;
6127;SDS011;7073;42.672;23.256;2023-12-22T04:12:02;25.83;;;13.85;;
6127;SDS011;7073;42.672;23.256;2023-12-22T04:14:55;28.27;;;14.10;;
6127;SDS011;7073;42.672;23.256;2023-12-22T04:23:47;25.52;;;13.93;;
6127;SDS011;7073;42.672;23.256;2023-12-22T04:26:16;26.88;;;12.65;;
6127;SDS011;7073;42.672;23.256;2023-12-22T04:28:58;25.30;;;12.60;;
6127;SDS011;7073;42.672;23.256;2023-12-22T04:31:26;25.65;;;13.35;;
6127;SDS011;7073;42.672;23.256;2023-12-22T04:33:56;25.05;;;13.27;;
6127;SDS011;7073;42.672;23.256;2023-12-22T04:36:34;35.83;;;15.15;;
6127;SDS011;7073;42.672;23.256;2023-12-22T04:50:13;32.63;;;15.30;;
6127;SDS011;7073;42.672;23.256;2023-12-22T05:00:45;29.75;;;14.30;;
6127;SDS011;7073;42.672;23.256;2023-12-22T05:03:19;28.05;;;13.65;;
6127;SDS011;7073;42.672;23.256;2023-12-22T05:05:48;26.92;;;13.57;;
6127;SDS011;7073;42.672;23.256;2023-12-22T05:08:16;29.85;;;15.57;;
6127;SDS011;7073;42.672;23.256;2023-12-22T05:10:45;26.33;;;13.88;;
6127;SDS011;7073;42.672;23.256;2023-12-22T05:13:14;27.60;;;14.15;;
6127;SDS011;7073;42.672;23.256;2023-12-22T05:15:56;28.95;;;14.95;;
6127;SDS011;7073;42.672;23.256;2023-12-22T05:18:30;23.58;;;12.18;;
6127;SDS011;7073;42.672;23.256;2023-12-22T05:23:35;29.40;;;10.77;;
6127;SDS011;7073;42.672;23.256;2023-12-22T05:26:08;23.75;;;11.57;;
6127;SDS011;7073;42.672;23.256;2023-12-22T05:28:36;21.42;;;11.98;;
6127;SDS011;7073;42.672;23.256;2023-12-22T05:31:05;23.63;;;12.85;;
6127;SDS011;7073;42.672;23.256;2023-12-22T05:33:32;9.10;;;4.68;;
6127;SDS011;7073;42.672;23.256;2023-12-22T05:39:12;3.28;;;1.75;;
6127;SDS011;7073;42.672;23.256;2023-12-22T05:42:00;1.70;;;1.15;;
6127;SDS011;7073;42.672;23.256;2023-12-22T05:48:42;3.45;;;2.13;;
6127;SDS011;7073;42.672;23.256;2023-12-22T05:51:36;3.35;;;2.13;;
6127;SDS011;7073;42.672;23.256;2023-12-22T05:54:04;4.38;;;2.80;;
6127;SDS011;7073;42.672;23.256;2023-12-22T05:56:33;3.92;;;2.10;;
6127;SDS011;7073;42.672;23.256;2023-12-22T05:59:01;3.20;;;1.73;;
6127;SDS011;7073;42.672;23.256;2023-12-22T06:01:31;2.90;;;1.80;;
6127;SDS011;7073;42.672;23.256;2023-12-22T06:03:57;9.60;;;5.05;;
6127;SDS011;7073;42.672;23.256;2023-12-22T06:06:25;13.95;;;7.38;;
6127;SDS011;7073;42.672;23.256;2023-12-22T06:08:58;16.23;;;9.48;;
6127;SDS011;7073;42.672;23.256;2023-12-22T06:11:30;15.90;;;9.02;;
6127;SDS011;7073;42.672;23.256;2023-12-22T06:14:05;15.52;;;8.63;;
6127;SDS011;7073;42.672;23.256;2023-12-22T06:16:47;15.70;;;9.27;;
6127;SDS011;7073;42.672;23.256;2023-12-22T06:19:16;19.25;;;10.20;;
6127;SDS011;7073;42.672;23.256;2023-12-22T06:21:43;19.38;;;9.98;;
6127;SDS011;7073;42.672;23.256;2023-12-22T06:24:11;19.95;;;10.70;;
6127;SDS011;7073;42.672;23.256;2023-12-22T06:26:40;18.88;;;10.25;;
6127;SDS011;7073;42.672;23.256;2023-12-22T06:29:07;18.65;;;10.70;;
6127;SDS011;7073;42.672;23.256;2023-12-22T06:31:34;19.65;;;10.57;;
6127;SDS011;7073;42.672;23.256;2023-12-22T06:34:01;19.52;;;10.30;;
6127;SDS011;7073;42.672;23.256;2023-12-22T06:36:29;20.95;;;10.20;;
6127;SDS011;7073;42.672;23.256;2023-12-22T06:38:56;17.25;;;11.13;;
6127;SDS011;7073;42.672;23.256;2023-12-22T06:41:24;22.08;;;11.65;;
6127;SDS011;7073;42.672;23.256;2023-12-22T06:43:59;20.05;;;9.98;;
6127;SDS011;7073;42.672;23.256;2023-12-22T06:46:30;20.98;;;11.13;;
6127;SDS011;7073;42.672;23.256;2023-12-22T06:49:03;20.42;;;9.88;;
6127;SDS011;7073;42.672;23.256;2023-12-22T06:51:44;19.38;;;10.25;;
6127;SDS011;7073;42.672;23.256;2023-12-22T06:54:29;25.38;;;11.10;;
6127;SDS011;7073;42.672;23.256;2023-12-22T06:57:19;20.45;;;9.70;;
6127;SDS011;7073;42.672;23.256;2023-12-22T07:00:05;20.42;;;9.98;;
6127;SDS011;7073;42.672;23.256;2023-12-22T07:02:55;24.77;;;12.57;;
6127;SDS011;7073;42.672;23.256;2023-12-22T07:05:53;22.90;;;11.15;;
6127;SDS011;7073;42.672;23.256;2023-12-22T07:08:24;22.73;;;12.43;;
6127;SDS011;7073;42.672;23.256;2023-12-22T07:11:58;17.77;;;10.48;;
6127;SDS011;7073;42.672;23.256;2023-12-22T07:14:32;19.02;;;9.43;;
6127;SDS011;7073;42.672;23.256;2023-12-22T07:26:21;24.42;;;11.43;;
6127;SDS011;7073;42.672;23.256;2023-12-22T07:29:13;24.55;;;10.25;;
6127;SDS011;7073;42.672;23.256;2023-12-22T07:32:11;22.25;;;12.23;;
6127;SDS011;7073;42.672;23.256;2023-12-22T07:34:46;21.80;;;12.27;;
6127;SDS011;7073;42.672;23.256;2023-12-22T07:37:28;20.75;;;11.77;;
6127;SDS011;7073;42.672;23.256;2023-12-22T07:40:42;27.23;;;15.35;;
6127;SDS011;7073;42.672;23.256;2023-12-22T07:44:02;23.55;;;14.45;;
6127;SDS011;7073;42.672;23.256;2023-12-22T07:47:06;18.63;;;10.95;;
6127;SDS011;7073;42.672;23.256;2023-12-22T08:17:29;17.65;;;10.30;;
6127;SDS011;7073;42.672;23.256;2023-12-22T08:20:16;9.05;;;4.65;;
6127;SDS011;7073;42.672;23.256;2023-12-22T08:23:16;24.77;;;13.00;;
6127;SDS011;7073;42.672;23.256;2023-12-22T08:32:17;34.97;;;18.80;;
6127;SDS011;7073;42.672;23.256;2023-12-22T08:34:48;28.70;;;15.75;;
6127;SDS011;7073;42.672;23.256;2023-12-22T08:37:27;4.28;;;2.53;;
6127;SDS011;7073;42.672;23.256;2023-12-22T08:42:59;15.65;;;7.93;;
6127;SDS011;7073;42.672;23.256;2023-12-22T08:45:36;3.03;;;1.45;;
6127;SDS011;7073;42.672;23.256;2023-12-22T08:48:13;3.33;;;1.80;;
6127;SDS011;7073;42.672;23.256;2023-12-22T08:54:38;14.10;;;7.68;;
6127;SDS011;7073;42.672;23.256;2023-12-22T08:57:05;10.95;;;6.47;;
6127;SDS011;7073;42.672;23.256;2023-12-22T08:59:33;16.73;;;8.65;;
6127;SDS011;7073;42.672;23.256;2023-12-22T09:02:04;9.23;;;4.38;;
6127;SDS011;7073;42.672;23.256;2023-12-22T09:04:34;9.45;;;4.15;;
6127;SDS011;7073;42.672;23.256;2023-12-22T09:07:03;4.57;;;2.35;;
6127;SDS011;7073;42.672;23.256;2023-12-22T09:09:31;15.05;;;4.22;;
6127;SDS011;7073;42.672;23.256;2023-12-22T09:11:59;7.82;;;3.00;;
6127;SDS011;7073;42.672;23.256;2023-12-22T09:14:26;3.55;;;1.23;;
6127;SDS011;7073;42.672;23.256;2023-12-22T09:16:54;2.42;;;1.10;;
6127;SDS011;7073;42.672;23.256;2023-12-22T09:19:24;3.08;;;0.95;;
6127;SDS011;7073;42.672;23.256;2023-12-22T09:21:51;2.28;;;0.98;;
6127;SDS011;7073;42.672;23.256;2023-12-22T09:24:18;3.80;;;1.83;;
6127;SDS011;7073;42.672;23.256;2023-12-22T09:26:46;3.67;;;1.88;;
6127;SDS011;7073;42.672;23.256;2023-12-22T09:29:15;1.30;;;0.70;;
6127;SDS011;7073;42.672;23.256;2023-12-22T09:31:43;2.05;;;1.00;;
6127;SDS011;7073;42.672;23.256;2023-12-22T09:34:10;2.92;;;1.10;;
6127;SDS011;7073;42.672;23.256;2023-12-22T09:36:37;2.25;;;0.93;;
6127;SDS011;7073;42.672;23.256;2023-12-22T09:39:06;1.23;;;0.30;;
6127;SDS011;7073;42.672;23.256;2023-12-22T09:48:13;1.85;;;1.30;;
6127;SDS011;7073;42.672;23.256;2023-12-22T09:51:04;0.82;;;0.50;;
6127;SDS011;7073;42.672;23.256;2023-12-22T09:53:54;2.70;;;1.30;;
6127;SDS011;7073;42.672;23.256;2023-12-22T09:56:37;2.83;;;1.33;;
6127;SDS011;7073;42.672;23.256;2023-12-22T10:01:36;3.72;;;1.42;;
6127;SDS011;7073;42.672;23.256;2023-12-22T10:04:06;3.28;;;1.50;;
6127;SDS011;7073;42.672;23.256;2023-12-22T10:06:37;4.95;;;1.85;;
6127;SDS011;7073;42.672;23.256;2023-12-22T10:09:04;3.00;;;1.73;;
6127;SDS011;7073;42.672;23.256;2023-12-22T10:11:33;1.60;;;1.02;;
6127;SDS011;7073;42.672;23.256;2023-12-22T10:14:02;2.85;;;1.73;;
6127;SDS011;7073;42.672;23.256;2023-12-22T10:16:31;4.65;;;2.40;;
6127;SDS011;7073;42.672;23.256;2023-12-22T10:49:58;1.20;;;0.60;;
6127;SDS011;7073;42.672;23.256;2023-12-22T10:52:31;2.10;;;0.80;;
6127;SDS011;7073;42.672;23.256;2023-12-22T10:55:21;3.88;;;1.35;;
6127;SDS011;7073;42.672;23.256;2023-12-22T10:58:02;4.13;;;1.10;;
6127;SDS011;7073;42.672;23.256;2023-12-22T11:01:08;3.08;;;1.40;;
6127;SDS011;7073;42.672;23.256;2023-12-22T11:04:13;1.92;;;0.85;;
6127;SDS011;7073;42.672;23.256;2023-12-22T11:07:23;1.45;;;0.50;;
6127;SDS011;7073;42.672;23.256;2023-12-22T11:16:19;2.60;;;1.00;;
6127;SDS011;7073;42.672;23.256;2023-12-22T11:19:03;3.67;;;0.80;;
6127;SDS011;7073;42.672;23.256;2023-12-22T11:21:50;1.42;;;0.77;;
6127;SDS011;7073;42.672;23.256;2023-12-22T11:27:15;0.75;;;0.52;;
6127;SDS011;7073;42.672;23.256;2023-12-22T11:29:49;3.53;;;1.30;;
6127;SDS011;7073;42.672;23.256;2023-12-22T11:32:20;1.00;;;0.50;;
6127;SDS011;7073;42.672;23.256;2023-12-22T11:34:54;1.55;;;1.00;;
6127;SDS011;7073;42.672;23.256;2023-12-22T11:37:42;1.20;;;0.70;;
6127;SDS011;7073;42.672;23.256;2023-12-22T11:40:27;3.20;;;0.80;;
6127;SDS011;7073;42.672;23.256;2023-12-22T11:43:12;1.55;;;0.60;;
6127;SDS011;7073;42.672;23.256;2023-12-22T11:45:50;0.80;;;0.52;;
6127;SDS011;7073;42.672;23.256;2023-12-22T11:48:29;1.08;;;0.70;;
6127;SDS011;7073;42.672;23.256;2023-12-22T11:51:16;2.45;;;0.90;;
6127;SDS011;7073;42.672;23.256;2023-12-22T11:53:54;2.40;;;1.27;;
6127;SDS011;7073;42.672;23.256;2023-12-22T12:00:07;1.10;;;0.50;;
6127;SDS011;7073;42.672;23.256;2023-12-22T12:03:06;1.83;;;1.00;;
6127;SDS011;7073;42.672;23.256;2023-12-22T12:06:21;2.35;;;0.88;;
6127;SDS011;7073;42.672;23.256;2023-12-22T12:09:14;1.65;;;0.63;;
6127;SDS011;7073;42.672;23.256;2023-12-22T12:14:54;0.98;;;0.60;;
6127;SDS011;7073;42.672;23.256;2023-12-22T12:17:28;1.20;;;0.60;;
6127;SDS011;7073;42.672;23.256;2023-12-22T12:20:28;0.95;;;0.50;;
6127;SDS011;7073;42.672;23.256;2023-12-22T12:23:01;2.10;;;1.45;;
6127;SDS011;7073;42.672;23.256;2023-12-22T12:25:32;2.67;;;1.13;;
6127;SDS011;7073;42.672;23.256;2023-12-22T12:28:25;2.13;;;1.10;;
6127;SDS011;7073;42.672;23.256;2023-12-22T12:31:08;2.10;;;1.27;;
6127;SDS011;7073;42.672;23.256;2023-12-22T12:33:39;2.03;;;1.10;;
6127;SDS011;7073;42.672;23.256;2023-12-22T12:36:31;1.83;;;1.30;;
6127;SDS011;7073;42.672;23.256;2023-12-22T12:39:06;2.70;;;1.05;;
6127;SDS011;7073;42.672;23.256;2023-12-22T12:41:53;1.65;;;1.13;;
6127;SDS011;7073;42.672;23.256;2023-12-22T12:44:51;2.75;;;1.38;;
6127;SDS011;7073;42.672;23.256;2023-12-22T12:51:25;1.83;;;0.95;;
6127;SDS011;7073;42.672;23.256;2023-12-22T12:54:22;0.77;;;0.55;;
6127;SDS011;7073;42.672;23.256;2023-12-22T12:57:07;2.42;;;1.10;;
6127;SDS011;7073;42.672;23.256;2023-12-22T13:10:05;2.20;;;1.02;;
6127;SDS011;7073;42.672;23.256;2023-12-22T13:16:02;3.47;;;1.83;;
6127;SDS011;7073;42.672;23.256;2023-12-22T15:03:15;1.98;;;0.85;;
6127;SDS011;7073;42.672;23.256;2023-12-22T15:06:11;3.50;;;1.67;;
6127;SDS011;7073;42.672;23.256;2023-12-22T15:08:54;3.53;;;1.90;;
6127;SDS011;7073;42.672;23.256;2023-12-22T15:15:41;4.57;;;1.52;;
6127;SDS011;7073;42.672;23.256;2023-12-22T15:18:48;1.75;;;0.75;;
6127;SDS011;7073;42.672;23.256;2023-12-22T15:25:26;2.25;;;1.30;;
6127;SDS011;7073;42.672;23.256;2023-12-22T15:28:34;1.85;;;1.00;;
6127;SDS011;7073;42.672;23.256;2023-12-22T15:31:28;2.58;;;0.82;;
6127;SDS011;7073;42.672;23.256;2023-12-22T15:34:18;4.60;;;2.15;;
6127;SDS011;7073;42.672;23.256;2023-12-22T15:37:15;1.13;;;0.57;;
6127;SDS011;7073;42.672;23.256;2023-12-22T15:47:38;3.72;;;1.80;;
6127;SDS011;7073;42.672;23.256;2023-12-22T15:57:59;1.45;;;1.08;;
6127;SDS011;7073;42.672;23.256;2023-12-22T16:00:44;1.92;;;0.98;;
6127;SDS011;7073;42.672;23.256;2023-12-22T16:03:24;1.38;;;0.77;;
6127;SDS011;7073;42.672;23.256;2023-12-22T16:09:14;1.92;;;0.98;;
6127;SDS011;7073;42.672;23.256;2023-12-22T16:12:00;0.80;;;0.57;;
6127;SDS011;7073;42.672;23.256;2023-12-22T16:14:36;2.85;;;1.33;;
6127;SDS011;7073;42.672;23.256;2023-12-22T16:17:34;2.67;;;1.15;;
6127;SDS011;7073;42.672;23.256;2023-12-22T16:20:11;3.65;;;1.33;;
6127;SDS011;7073;42.672;23.256;2023-12-22T16:23:17;1.33;;;0.85;;
6127;SDS011;7073;42.672;23.256;2023-12-22T16:26:02;2.10;;;1.00;;
6127;SDS011;7073;42.672;23.256;2023-12-22T16:35:15;3.88;;;1.58;;
6127;SDS011;7073;42.672;23.256;2023-12-22T16:37:56;2.33;;;1.20;;
6127;SDS011;7073;42.672;23.256;2023-12-22T16:40:29;3.47;;;1.10;;
6127;SDS011;7073;42.672;23.256;2023-12-22T16:43:22;2.85;;;1.50;;
6127;SDS011;7073;42.672;23.256;2023-12-22T16:45:55;2.83;;;1.50;;
6127;SDS011;7073;42.672;23.256;2023-12-22T16:51:35;1.58;;;0.90;;
6127;SDS011;7073;42.672;23.256;2023-12-22T16:54:24;2.85;;;1.10;;
6127;SDS011;7073;42.672;23.256;2023-12-22T17:00:32;1.25;;;0.73;;
6127;SDS011;7073;42.672;23.256;2023-12-22T17:03:10;1.30;;;0.90;;
